createdAt,value
2022-09-15T00:00:22.192Z,8.48
2022-09-15T00:02:50.424Z,7.47
2022-09-15T00:05:19.067Z,5.22
2022-09-15T00:07:47.080Z,6.85
2022-09-15T00:10:17.723Z,7.95
2022-09-15T00:12:45.772Z,5.65
2022-09-15T00:15:15.262Z,8.02
2022-09-15T00:17:43.736Z,9.45
2022-09-15T00:20:12.177Z,6.88
2022-09-15T00:22:40.233Z,6.57
2022-09-15T00:25:08.188Z,5.75
2022-09-15T00:27:37.567Z,7.70
2022-09-15T00:30:06.188Z,5.97
2022-09-15T00:32:34.172Z,7.55
2022-09-15T00:35:02.220Z,6.55
2022-09-15T00:37:30.164Z,11.00
2022-09-15T00:39:58.517Z,9.00
2022-09-15T00:42:26.500Z,9.65
2022-09-15T00:44:57.835Z,7.47
2022-09-15T00:47:26.988Z,9.45
2022-09-15T00:49:59.199Z,7.43
2022-09-15T00:52:29.216Z,7.28
2022-09-15T00:55:01.082Z,6.65
2022-09-15T00:57:31.225Z,7.35
2022-09-15T01:00:01.392Z,8.88
2022-09-15T01:02:30.676Z,10.60
2022-09-15T01:04:59.366Z,7.25
2022-09-15T01:07:29.886Z,11.40
2022-09-15T01:09:59.656Z,6.38
2022-09-15T01:12:30.279Z,6.70
2022-09-15T01:15:02.820Z,7.10
2022-09-15T01:17:37.100Z,6.53
2022-09-15T01:20:27.859Z,6.30
2022-09-15T01:23:06.316Z,7.07
2022-09-15T01:25:41.522Z,7.45
2022-09-15T01:28:31.131Z,9.93
2022-09-15T01:31:02.528Z,7.63
2022-09-15T01:33:34.252Z,9.18
2022-09-15T01:36:04.952Z,9.10
2022-09-15T01:38:37.171Z,7.57
2022-09-15T01:41:06.868Z,6.68
2022-09-15T01:43:36.478Z,9.95
2022-09-15T01:46:06.220Z,6.13
2022-09-15T01:48:35.804Z,9.90
2022-09-15T01:51:04.797Z,7.70
2022-09-15T01:53:32.752Z,11.43
2022-09-15T01:56:02.264Z,8.25
2022-09-15T01:58:31.252Z,7.80
2022-09-15T02:01:01.924Z,9.30
2022-09-15T02:03:35.226Z,7.78
2022-09-15T02:06:07.135Z,8.88
2022-09-15T02:08:39.245Z,11.73
2022-09-15T02:11:16.297Z,7.80
2022-09-15T02:13:48.864Z,10.95
2022-09-15T02:16:20.477Z,10.43
2022-09-15T02:19:00.585Z,8.05
2022-09-15T02:21:31.900Z,8.48
2022-09-15T02:24:03.552Z,7.75
2022-09-15T02:26:33.521Z,9.52
2022-09-15T02:29:04.258Z,9.55
2022-09-15T02:31:33.076Z,8.25
2022-09-15T02:34:04.434Z,9.35
2022-09-15T02:36:32.773Z,8.48
2022-09-15T02:39:03.176Z,7.85
2022-09-15T02:41:31.429Z,8.82
2022-09-15T02:44:00.467Z,7.20
2022-09-15T02:46:28.720Z,9.57
2022-09-15T02:48:57.147Z,10.35
2022-09-15T02:51:26.764Z,9.73
2022-09-15T02:53:54.791Z,7.22
2022-09-15T02:56:22.664Z,9.27
2022-09-15T02:58:50.493Z,7.88
2022-09-15T03:01:18.529Z,11.90
2022-09-15T03:03:47.085Z,10.27
2022-09-15T03:06:30.921Z,8.73
2022-09-15T03:09:00.665Z,8.60
2022-09-15T03:11:29.613Z,6.70
2022-09-15T03:14:00.855Z,11.25
2022-09-15T03:16:30.544Z,7.10
2022-09-15T03:18:59.891Z,9.57
2022-09-15T03:21:29.475Z,7.43
2022-09-15T03:23:57.729Z,8.43
2022-09-15T03:26:27.400Z,7.05
2022-09-15T03:28:55.117Z,12.02
2022-09-15T03:31:23.108Z,8.50
2022-09-15T03:33:51.277Z,7.68
2022-09-15T03:36:19.151Z,9.23
2022-09-15T03:38:47.072Z,8.45
2022-09-15T03:41:15.315Z,7.05
2022-09-15T03:43:44.508Z,10.23
2022-09-15T03:46:13.129Z,9.18
2022-09-15T03:48:41.743Z,13.25
2022-09-15T03:51:10.645Z,7.28
2022-09-15T03:53:39.101Z,8.50
2022-09-15T03:56:10.813Z,8.48
2022-09-15T03:58:38.899Z,11.35
2022-09-15T04:01:09.361Z,7.35
2022-09-15T04:03:42.722Z,9.48
2022-09-15T04:06:13.032Z,9.00
2022-09-15T04:08:41.582Z,10.93
2022-09-15T04:11:10.609Z,10.05
2022-09-15T04:13:40.847Z,7.50
2022-09-15T04:16:11.584Z,8.93
2022-09-15T04:18:39.509Z,9.63
2022-09-15T04:21:08.540Z,7.28
2022-09-15T04:23:37.385Z,7.95
2022-09-15T04:26:06.349Z,7.60
2022-09-15T04:28:35.216Z,8.32
2022-09-15T04:31:06.940Z,8.70
2022-09-15T04:33:36.368Z,8.68
2022-09-15T04:36:05.055Z,9.63
2022-09-15T04:38:33.503Z,12.32
2022-09-15T04:41:01.852Z,8.00
2022-09-15T04:43:30.065Z,12.95
2022-09-15T04:45:58.256Z,8.10
2022-09-15T04:48:26.931Z,10.70
2022-09-15T04:50:56.473Z,7.47
2022-09-15T04:53:24.614Z,10.98
2022-09-15T04:55:53.053Z,7.03
2022-09-15T04:58:21.022Z,8.90
2022-09-15T05:00:49.083Z,8.57
2022-09-15T05:03:17.061Z,9.98
2022-09-15T05:05:45.281Z,7.78
2022-09-15T05:08:15.121Z,10.02
2022-09-15T05:10:42.973Z,10.45
2022-09-15T05:13:10.961Z,9.45
2022-09-15T05:15:39.829Z,9.07
2022-09-15T05:18:08.372Z,10.52
2022-09-15T05:20:37.723Z,9.10
2022-09-15T05:23:05.389Z,7.93
2022-09-15T05:25:34.613Z,9.73
2022-09-15T05:28:02.685Z,9.80
2022-09-15T05:30:38.654Z,11.68
2022-09-15T05:33:08.608Z,7.80
2022-09-15T05:35:36.607Z,11.27
2022-09-15T05:38:04.506Z,12.02
2022-09-15T05:40:35.377Z,8.90
2022-09-15T05:43:04.479Z,7.30
2022-09-15T05:45:32.399Z,8.40
2022-09-15T05:48:00.437Z,9.52
2022-09-15T05:50:28.480Z,9.05
2022-09-15T05:52:58.398Z,9.23
2022-09-15T05:55:26.565Z,10.77
2022-09-15T05:57:56.289Z,12.02
2022-09-15T06:00:24.953Z,10.68
2022-09-15T06:02:53.163Z,9.73
2022-09-15T06:05:21.539Z,8.77
2022-09-15T06:07:49.666Z,8.02
2022-09-15T06:10:18.285Z,11.73
2022-09-15T06:12:46.220Z,10.52
2022-09-15T06:15:15.770Z,9.88
2022-09-15T06:17:43.598Z,8.07
2022-09-15T06:20:12.353Z,10.75
2022-09-15T06:22:40.753Z,11.95
2022-09-15T06:25:09.606Z,9.80
2022-09-15T06:27:37.696Z,12.38
2022-09-15T06:30:05.703Z,10.40
2022-09-15T06:32:36.380Z,10.25
2022-09-15T06:35:07.110Z,8.00
2022-09-15T06:37:35.226Z,14.98
2022-09-15T06:40:04.587Z,11.63
2022-09-15T06:42:32.761Z,11.75
2022-09-15T06:45:00.968Z,10.00
2022-09-15T06:47:33.892Z,10.55
2022-09-15T06:50:03.603Z,10.52
2022-09-15T06:52:31.795Z,10.95
2022-09-15T06:55:00.160Z,12.57
2022-09-15T06:57:28.632Z,12.00
2022-09-15T06:59:57.325Z,12.57
2022-09-15T07:02:25.397Z,9.43
2022-09-15T07:04:53.624Z,11.27
2022-09-15T07:07:22.828Z,10.10
2022-09-15T07:09:50.841Z,10.40
2022-09-15T07:12:18.914Z,11.13
2022-09-15T07:14:47.018Z,12.70
2022-09-15T07:17:15.353Z,7.75
2022-09-15T07:19:43.590Z,9.00
2022-09-15T07:22:12.116Z,11.80
2022-09-15T07:24:41.541Z,9.82
2022-09-15T07:27:09.720Z,7.63
2022-09-15T07:29:38.293Z,10.82
2022-09-15T07:32:07.816Z,11.60
2022-09-15T07:34:36.753Z,10.25
2022-09-15T07:37:06.393Z,12.45
2022-09-15T07:39:34.782Z,11.70
2022-09-15T07:42:05.209Z,11.40
2022-09-15T07:44:33.072Z,6.57
2022-09-15T07:47:02.614Z,11.05
2022-09-15T07:49:31.058Z,13.40
2022-09-15T07:51:59.203Z,11.20
2022-09-15T07:54:26.977Z,12.75
2022-09-15T07:56:55.781Z,12.27
2022-09-15T07:59:25.833Z,12.70
2022-09-15T08:01:54.100Z,12.07
2022-09-15T08:04:22.070Z,15.02
2022-09-15T08:06:52.787Z,11.85
2022-09-15T08:09:20.904Z,15.23
2022-09-15T08:11:48.981Z,16.50
2022-09-15T08:14:17.323Z,10.63
2022-09-15T08:16:46.606Z,11.32
2022-09-15T08:19:14.512Z,11.32
2022-09-15T08:21:42.792Z,11.18
2022-09-15T08:24:10.865Z,14.48
2022-09-15T08:26:38.616Z,10.88
2022-09-15T08:29:07.562Z,14.77
2022-09-15T08:31:35.726Z,10.07
2022-09-15T08:34:07.091Z,12.80
2022-09-15T08:36:35.720Z,15.35
2022-09-15T08:39:04.140Z,11.55
2022-09-15T08:41:35.633Z,14.02
2022-09-15T08:44:08.623Z,12.50
2022-09-15T08:46:38.806Z,7.63
2022-09-15T08:49:11.131Z,10.70
2022-09-15T08:51:43.480Z,8.52
2022-09-15T08:54:14.943Z,11.52
2022-09-15T08:56:45.672Z,7.57
2022-09-15T08:59:15.066Z,10.55
2022-09-15T09:01:49.355Z,7.90
2022-09-15T09:04:29.860Z,8.60
2022-09-15T09:07:05.784Z,10.88
2022-09-15T09:09:40.265Z,8.27
2022-09-15T09:12:18.232Z,12.35
2022-09-15T09:14:52.815Z,12.07
2022-09-15T09:17:32.355Z,10.57
2022-09-15T09:20:32.070Z,8.73
2022-09-15T09:23:02.614Z,6.70
2022-09-15T09:25:31.660Z,7.25
2022-09-15T09:28:00.560Z,5.25
2022-09-15T09:30:31.439Z,10.20
2022-09-15T09:33:05.369Z,3.30
2022-09-15T09:35:35.826Z,6.03
2022-09-15T09:38:05.520Z,6.47
2022-09-15T09:40:34.303Z,8.48
2022-09-15T09:43:02.103Z,6.47
2022-09-15T09:45:29.979Z,5.05
2022-09-15T09:48:01.801Z,6.22
2022-09-15T09:50:34.889Z,6.57
2022-09-15T09:53:18.358Z,6.30
2022-09-15T09:55:47.285Z,6.18
2022-09-15T09:58:18.744Z,6.45
2022-09-15T10:00:47.315Z,9.27
2022-09-15T10:03:17.306Z,6.13
2022-09-15T10:05:45.829Z,5.47
2022-09-15T10:08:19.878Z,6.00
2022-09-15T10:10:51.496Z,5.47
2022-09-15T10:13:21.215Z,2.63
2022-09-15T10:15:53.123Z,2.95
2022-09-15T10:18:28.143Z,5.00
2022-09-15T10:20:56.385Z,8.68
2022-09-15T10:23:29.505Z,7.20
2022-09-15T10:26:00.317Z,7.43
2022-09-15T10:28:28.753Z,3.72
2022-09-15T10:31:01.318Z,4.85
2022-09-15T10:33:30.516Z,4.82
2022-09-15T10:36:03.217Z,4.55
2022-09-15T10:38:35.394Z,3.58
2022-09-15T10:41:10.090Z,7.80
2022-09-15T10:43:43.564Z,2.30
2022-09-15T10:46:13.898Z,10.82
2022-09-15T10:48:48.341Z,6.32
2022-09-15T10:51:22.708Z,2.38
2022-09-15T10:53:59.216Z,4.75
2022-09-15T10:56:29.280Z,2.10
2022-09-15T10:59:03.884Z,3.97
2022-09-15T11:01:43.607Z,3.13
2022-09-15T11:04:44.433Z,2.38
2022-09-15T11:07:18.660Z,2.88
2022-09-15T11:09:52.237Z,1.50
2022-09-15T11:12:30.411Z,2.90
2022-09-15T11:15:05.112Z,2.38
2022-09-15T11:17:39.481Z,3.15
2022-09-15T11:20:21.023Z,3.35
2022-09-15T11:22:52.087Z,4.95
2022-09-15T11:25:23.005Z,3.33
2022-09-15T11:27:53.901Z,4.05
2022-09-15T11:30:22.904Z,4.88
2022-09-15T11:32:55.782Z,4.32
2022-09-15T11:35:37.629Z,5.85
2022-09-15T11:38:14.358Z,6.53
2022-09-15T11:40:47.873Z,6.55
2022-09-15T11:43:18.800Z,3.70
2022-09-15T11:45:50.109Z,3.13
2022-09-15T11:48:22.812Z,3.03
2022-09-15T11:50:53.762Z,3.10
2022-09-15T11:53:27.495Z,1.92
2022-09-15T11:56:01.348Z,2.15
2022-09-15T11:58:34.695Z,3.50
2022-09-15T12:01:09.009Z,3.38
2022-09-15T12:03:38.921Z,5.20
2022-09-15T12:06:09.539Z,3.13
2022-09-15T12:08:42.279Z,3.38
2022-09-15T12:11:13.728Z,1.80
2022-09-15T12:13:42.272Z,4.22
2022-09-15T12:16:10.583Z,4.38
2022-09-15T12:18:44.820Z,1.65
2022-09-15T12:21:15.828Z,1.15
2022-09-15T12:23:47.202Z,1.75
2022-09-15T12:26:18.920Z,1.10
2022-09-15T12:28:54.359Z,3.45
2022-09-15T12:31:28.190Z,2.30
2022-09-15T12:33:57.795Z,1.13
2022-09-15T12:36:51.318Z,4.70
2022-09-15T12:39:23.384Z,2.63
2022-09-15T12:41:54.102Z,2.38
2022-09-15T12:44:25.528Z,1.73
2022-09-15T12:46:54.551Z,5.70
2022-09-15T12:49:24.919Z,4.07
2022-09-15T12:51:53.097Z,2.17
2022-09-15T12:54:25.290Z,2.40
2022-09-15T12:56:55.929Z,3.45
2022-09-15T12:59:26.846Z,4.38
2022-09-15T13:01:55.122Z,2.30
2022-09-15T13:04:27.838Z,2.95
2022-09-15T13:07:14.727Z,2.80
2022-09-15T13:09:45.780Z,1.65
2022-09-15T13:12:18.477Z,2.72
2022-09-15T13:14:48.549Z,2.13
2022-09-15T13:17:18.889Z,1.08
2022-09-15T13:19:48.652Z,3.15
2022-09-15T13:22:20.996Z,4.22
2022-09-15T13:24:49.969Z,3.40
2022-09-15T13:27:20.484Z,4.55
2022-09-15T13:29:50.440Z,3.00
2022-09-15T13:32:24.051Z,7.15
2022-09-15T13:35:15.357Z,6.20
2022-09-15T13:38:12.161Z,5.43
2022-09-15T13:40:55.867Z,3.13
2022-09-15T13:43:41.457Z,2.97
2022-09-15T13:46:17.110Z,9.05
2022-09-15T13:48:56.906Z,1.80
2022-09-15T13:51:26.545Z,1.05
2022-09-15T13:53:56.847Z,3.15
2022-09-15T13:56:28.231Z,3.33
2022-09-15T13:59:05.322Z,3.35
2022-09-15T14:01:39.444Z,3.42
2022-09-15T14:04:09.109Z,3.50
2022-09-15T14:06:39.080Z,6.07
2022-09-15T14:09:09.146Z,4.15
2022-09-15T14:11:37.964Z,4.85
2022-09-15T14:14:08.880Z,15.23
2022-09-15T14:16:39.244Z,6.47
2022-09-15T14:19:23.402Z,6.50
2022-09-15T14:21:53.837Z,1.80
2022-09-15T14:24:31.101Z,3.75
2022-09-15T14:27:00.885Z,2.30
2022-09-15T14:29:29.427Z,4.70
2022-09-15T14:32:03.935Z,8.63
2022-09-15T14:34:33.254Z,2.75
2022-09-15T14:37:03.516Z,11.05
2022-09-15T14:39:31.580Z,4.63
2022-09-15T14:47:29.103Z,5.07
2022-09-15T14:50:07.582Z,1.00
2022-09-15T14:52:37.201Z,5.63
2022-09-15T14:55:07.795Z,2.17
2022-09-15T14:57:38.643Z,2.20
2022-09-15T15:00:08.801Z,1.58
2022-09-15T15:02:48.365Z,3.25
2022-09-15T15:05:19.471Z,1.25
2022-09-15T15:07:47.476Z,4.07
2022-09-15T15:10:17.836Z,1.20
2022-09-15T15:12:49.830Z,1.55
2022-09-15T15:15:18.832Z,1.30
2022-09-15T15:17:51.585Z,1.70
2022-09-15T15:20:22.757Z,3.78
2022-09-15T15:23:04.998Z,1.40
2022-09-15T15:25:33.264Z,3.50
2022-09-15T15:28:03.018Z,4.43
2022-09-15T15:30:36.615Z,2.78
2022-09-15T15:33:06.895Z,6.78
2022-09-15T15:35:37.250Z,3.58
2022-09-15T15:38:07.864Z,1.63
2022-09-15T15:40:40.373Z,1.65
2022-09-15T15:43:11.940Z,8.13
2022-09-15T15:45:49.241Z,4.43
2022-09-15T15:48:18.569Z,3.70
2022-09-15T15:50:46.960Z,2.38
2022-09-15T15:53:14.824Z,6.78
2022-09-15T15:55:44.184Z,2.85
2022-09-15T15:58:15.587Z,3.50
2022-09-15T16:00:45.375Z,1.73
2022-09-15T16:03:13.721Z,6.53
2022-09-15T16:05:45.333Z,2.10
2022-09-15T16:08:16.005Z,3.25
2022-09-15T16:10:45.269Z,2.13
2022-09-15T16:13:15.509Z,4.15
2022-09-15T16:15:43.831Z,4.40
2022-09-15T16:18:12.056Z,2.83
2022-09-15T16:20:40.361Z,2.38
2022-09-15T16:23:15.070Z,0.30
2022-09-15T16:25:46.846Z,4.80
2022-09-15T16:28:14.916Z,0.30
2022-09-15T16:30:44.092Z,1.45
2022-09-15T16:33:13.916Z,0.30
2022-09-15T16:35:44.304Z,0.30
2022-09-15T16:38:14.152Z,0.75
2022-09-15T16:40:42.084Z,0.40
2022-09-15T16:43:13.539Z,3.00
2022-09-15T16:45:41.658Z,0.32
2022-09-15T16:48:11.869Z,1.30
2022-09-15T16:50:50.086Z,1.17
2022-09-15T16:53:26.671Z,0.68
2022-09-15T16:55:55.729Z,0.65
2022-09-15T16:58:24.373Z,0.45
2022-09-15T17:00:53.256Z,0.60
2022-09-15T17:03:21.990Z,1.40
2022-09-15T17:05:50.694Z,0.30
2022-09-15T17:08:19.971Z,0.85
2022-09-15T17:10:50.146Z,0.43
2022-09-15T17:13:19.240Z,0.65
2022-09-15T17:15:48.788Z,0.40
2022-09-15T17:18:16.813Z,2.10
2022-09-15T17:20:45.127Z,0.63
2022-09-15T17:23:18.245Z,0.20
2022-09-15T17:25:52.044Z,0.35
2022-09-15T17:28:22.961Z,0.20
2022-09-15T17:30:51.970Z,0.25
2022-09-15T17:33:21.153Z,0.40
2022-09-15T17:35:49.727Z,0.30
2022-09-15T17:38:20.508Z,0.60
2022-09-15T17:40:49.735Z,0.22
2022-09-15T17:43:19.741Z,0.70
2022-09-15T17:45:49.522Z,1.25
2022-09-15T17:48:18.037Z,1.00
2022-09-15T17:50:48.798Z,1.10
2022-09-15T17:53:17.998Z,1.85
2022-09-15T17:55:46.097Z,0.50
2022-09-15T17:58:14.187Z,0.80
2022-09-15T18:00:43.863Z,1.02
2022-09-15T18:03:17.281Z,3.40
2022-09-15T18:05:45.494Z,3.85
2022-09-15T18:08:13.693Z,0.13
2022-09-15T18:10:41.567Z,2.88
2022-09-15T18:13:14.067Z,2.05
2022-09-15T18:15:42.916Z,2.08
2022-09-15T18:18:15.742Z,1.58
2022-09-15T18:20:45.412Z,1.38
2022-09-15T18:23:15.723Z,0.85
2022-09-15T18:25:43.785Z,1.20
2022-09-15T18:28:12.639Z,0.88
2022-09-15T18:30:41.883Z,0.95
2022-09-15T18:33:09.963Z,0.93
2022-09-15T18:35:40.080Z,0.63
2022-09-15T18:38:09.650Z,1.40
2022-09-15T18:40:37.769Z,1.02
2022-09-15T18:43:06.417Z,0.55
2022-09-15T18:45:34.348Z,1.17
2022-09-15T18:48:02.459Z,1.27
2022-09-15T18:50:30.381Z,1.08
2022-09-15T18:52:58.194Z,0.50
2022-09-15T18:55:28.041Z,0.77
2022-09-15T18:58:00.104Z,0.90
2022-09-15T19:00:28.929Z,3.38
2022-09-15T19:02:57.343Z,2.38
2022-09-15T19:05:25.342Z,1.17
2022-09-15T19:07:53.296Z,0.45
2022-09-15T19:10:21.206Z,0.50
2022-09-15T19:12:50.951Z,0.65
2022-09-15T19:15:28.268Z,1.95
2022-09-15T19:17:56.248Z,1.63
2022-09-15T19:20:24.235Z,1.30
2022-09-15T19:22:52.728Z,0.50
2022-09-15T19:25:20.842Z,1.02
2022-09-15T19:28:03.936Z,1.15
2022-09-15T19:30:31.844Z,0.60
2022-09-15T19:36:28.278Z,5.95
2022-09-15T19:38:56.702Z,7.05
2022-09-15T19:41:24.833Z,4.25
2022-09-15T19:43:55.020Z,4.35
2022-09-15T19:47:14.221Z,3.08
2022-09-15T19:49:42.093Z,3.83
2022-09-15T19:52:10.374Z,5.03
2022-09-15T19:54:38.356Z,2.05
2022-09-15T19:57:06.309Z,4.10
2022-09-15T19:59:36.720Z,1.38
2022-09-15T20:02:04.594Z,5.00
2022-09-15T20:04:32.677Z,1.33
2022-09-15T20:07:01.695Z,6.10
2022-09-15T20:09:29.932Z,2.08
2022-09-15T20:11:58.391Z,2.47
2022-09-15T20:14:28.553Z,4.65
2022-09-15T20:17:00.968Z,6.43
2022-09-15T20:19:29.391Z,2.35
2022-09-15T20:21:57.312Z,4.90
2022-09-15T20:24:25.956Z,4.07
2022-09-15T20:26:54.218Z,3.25
2022-09-15T20:29:23.943Z,2.17
2022-09-15T20:31:52.413Z,2.33
2022-09-15T20:34:22.178Z,5.90
2022-09-15T20:36:50.894Z,4.82
2022-09-15T20:39:22.483Z,5.75
2022-09-15T20:41:50.771Z,7.03
2022-09-15T20:44:18.622Z,2.75
2022-09-15T20:46:46.530Z,1.85
2022-09-15T20:49:14.681Z,2.58
2022-09-15T20:51:44.321Z,0.82
2022-09-15T20:54:12.314Z,2.42
2022-09-15T20:56:40.185Z,5.22
2022-09-15T20:59:10.422Z,6.18
2022-09-15T21:01:40.009Z,2.28
2022-09-15T21:04:09.229Z,6.30
2022-09-15T21:06:38.063Z,2.28
2022-09-15T21:09:08.692Z,2.97
2022-09-15T21:11:36.852Z,4.28
2022-09-15T21:14:04.747Z,2.72
2022-09-15T21:16:34.955Z,1.73
2022-09-15T21:19:03.108Z,2.65
2022-09-15T21:21:32.332Z,5.00
2022-09-15T21:24:01.819Z,6.45
2022-09-15T21:26:32.516Z,1.45
2022-09-15T21:29:00.991Z,2.45
2022-09-15T21:31:29.996Z,4.03
2022-09-15T21:33:58.430Z,7.82
2022-09-15T21:36:27.665Z,2.90
2022-09-15T21:38:56.398Z,1.50
2022-09-15T21:41:25.554Z,2.67
2022-09-15T21:43:56.187Z,3.70
2022-09-15T21:46:25.599Z,1.60
2022-09-15T21:48:53.850Z,2.00
2022-09-15T21:51:24.870Z,3.05
2022-09-15T21:53:54.086Z,4.68
2022-09-15T21:56:22.863Z,3.72
2022-09-15T21:58:51.068Z,3.40
2022-09-15T22:01:21.764Z,2.03
2022-09-15T22:03:51.688Z,2.97
2022-09-15T22:06:20.337Z,6.50
2022-09-15T22:08:48.998Z,4.15
2022-09-15T22:11:16.989Z,2.67
2022-09-15T22:13:45.371Z,5.22
2022-09-15T22:16:13.995Z,4.65
2022-09-15T22:18:43.586Z,2.38
2022-09-15T22:21:12.726Z,3.70
2022-09-15T22:23:41.072Z,2.45
2022-09-15T22:26:10.886Z,2.75
2022-09-15T22:28:39.195Z,2.65
2022-09-15T22:31:08.233Z,4.03
2022-09-15T22:33:36.251Z,5.05
2022-09-15T22:36:06.093Z,5.43
2022-09-15T22:38:33.939Z,4.22
2022-09-15T22:41:05.309Z,6.78
2022-09-15T22:43:33.783Z,2.92
2022-09-15T22:46:01.688Z,4.53
2022-09-15T22:48:29.673Z,2.15
2022-09-15T22:50:57.702Z,2.70
2022-09-15T22:53:27.750Z,5.13
2022-09-15T22:56:05.483Z,5.88
2022-09-15T22:58:33.962Z,6.88
2022-09-15T23:01:05.960Z,3.38
2022-09-15T23:03:34.192Z,3.95
2022-09-15T23:06:02.194Z,7.88
2022-09-15T23:08:31.786Z,4.97
2022-09-15T23:11:03.772Z,3.47
2022-09-15T23:13:31.660Z,5.35
2022-09-15T23:15:59.882Z,3.33
2022-09-15T23:18:28.163Z,1.85
2022-09-15T23:21:00.108Z,3.42
2022-09-15T23:23:28.660Z,6.18
2022-09-15T23:25:58.477Z,3.63
2022-09-15T23:28:26.423Z,5.90
2022-09-15T23:30:54.988Z,2.63
2022-09-15T23:33:23.548Z,4.18
2022-09-15T23:35:52.371Z,2.95
2022-09-15T23:38:20.845Z,2.88
2022-09-15T23:40:49.565Z,2.75
2022-09-15T23:43:19.372Z,3.60
2022-09-15T23:45:47.573Z,3.55
2022-09-15T23:48:16.274Z,3.45
2022-09-15T23:50:44.478Z,2.13
2022-09-15T23:53:12.403Z,3.20
2022-09-15T23:55:40.494Z,4.32
2022-09-15T23:58:08.749Z,2.67
